Williamsport, PA (17701)

5:15 PM EDT on September 01, 2014 (GMT -0400)
KPAWILLI1 | Change Station
CLOSE
Current Station
Personal Weather Station
Location: Williamsport, PA
Elevation: 535 ft
Nearby Weather Stations

Elev 535 ft 41.25 °N, 76.96 °W | Updated 1 minute ago

Scattered Clouds
Scattered Clouds
83.8 °F
Feels Like 87 °F
N
0.0
Wind Variable Wind from North
Gusts 0.0 mph

Today
High -- | Low -- °F
--% Chance of Precip.
Yesterday
High -- | Low -- °F
Precip. -- in
6:34 AM 7:40 PM
Waxing Crescent, 44% visible
Pressure 29.92 in
Visibility 10.0 miles
Clouds Scattered Clouds 6000 ft
Scattered Clouds 8500 ft
Heat Index 87 °F
Dew Point 69 °F
Humidity 61%
Rainfall -999.00 in
Snow Depth Not available.
UV 3 out of 12
Pollen 5.00 out of 12
Air Quality Not available.
Flu Activity Not available.
METAR KIPT 012054Z 00000KT 10SM SCT060 SCT085 28/21 A2993 RMK AO2 SLP130 T02830206 56011

More Conditions Fewer Conditions

Pressure 29.92 in
Visibility 10.0 miles
Clouds Scattered Clouds 6000 ft
Scattered Clouds 8500 ft
Heat Index 87 °F
Dew Point 69 °F
Humidity 61%
Rainfall -999.00 in
Snow Depth Not available.
UV 3 out of 12
Pollen 5.00 out of 12
Air Quality Not available.
Flu Activity Not available.
METAR KIPT 012054Z 00000KT 10SM SCT060 SCT085 28/21 A2993 RMK AO2 SLP130 T02830206 56011

More Conditions Fewer Conditions

10-Day Weather Forecast

Almanac

Astronomy

Sep. 01, 2014 Rise Set
Actual Time 6:34 AM EDT 7:40 PM EDT
Civil Twilight 6:06 AM EDT 8:09 PM EDT
Nautical Twilight 5:32 AM EDT 8:43 PM EDT
Astronomical Twilight 4:56 AM EDT 9:18 PM EDT
Moon 1:22 PM EDT 11:36 PM EDT
Length of Visible Light 14h 03m
Length of Day
13h 06m
Tomorrow will be 2m 38s shorter.
Waxing Crescent, 44% of the Moon is Illuminated
Today
Waxing Crescent
Sep 2
First Quarter
Sep 8
Full
Sep 15
Last Quarter
Sep 24
New

Today's Extremes

State Highs State Lows

Community

WunderPhotos

Upload Photos

1,749,409 photos uploaded!

WunderBlogs® & News

Nearby

Snow Depth

Station Depth Elevation
No new snow has been reported.

Earthquake Activity

City Distance Mag. Time & Date
No recent earthquake activity has been reported nearby.
Minimum magnitude displayed is 2.5.

Coastal Water Temperatures

Place Temperature
No Stations Reporting

Nearby Weather Stations